createdAt,value
2023-04-20T00:01:30.992Z,31.30
2023-04-20T00:09:00.195Z,31.10
2023-04-20T00:12:08.615Z,31.10
2023-04-20T00:20:32.719Z,30.60
2023-04-20T00:24:03.781Z,30.70
2023-04-20T00:27:43.598Z,31.00
2023-04-20T00:30:48.971Z,30.90
2023-04-20T00:34:28.942Z,31.00
2023-04-20T00:37:33.785Z,31.00
2023-04-20T00:41:43.620Z,30.40
2023-04-20T00:45:06.701Z,29.90
2023-04-20T00:48:28.830Z,30.00
2023-04-20T01:01:20.371Z,30.20
2023-04-20T01:10:00.658Z,30.10
2023-04-20T01:23:15.659Z,30.40
2023-04-20T01:31:07.491Z,30.50
2023-04-20T01:39:22.020Z,30.60
2023-04-20T01:43:05.969Z,31.10
2023-04-20T01:51:20.412Z,30.40
2023-04-20T01:59:20.368Z,29.70
2023-04-20T02:11:42.325Z,29.80
2023-04-20T02:25:26.017Z,29.90
2023-04-20T02:29:44.337Z,29.80
2023-04-20T02:38:27.318Z,30.20
2023-04-20T03:10:51.057Z,30.40
2023-04-20T03:22:32.939Z,30.20
2023-04-20T03:25:54.386Z,30.40
2023-04-20T03:33:45.511Z,30.30
2023-04-20T03:59:54.779Z,30.30
2023-04-20T04:11:38.777Z,30.30
2023-04-20T04:15:21.628Z,30.40
2023-04-20T04:20:11.229Z,29.50
2023-04-20T04:36:19.053Z,30.70
2023-04-20T04:39:21.267Z,30.90
2023-04-20T04:43:02.707Z,31.30
2023-04-20T04:46:12.446Z,31.40
2023-04-20T04:49:50.568Z,31.50
2023-04-20T04:53:23.909Z,31.70
2023-04-20T05:01:10.758Z,31.60
2023-04-20T05:05:09.456Z,31.60
2023-04-20T05:08:46.036Z,31.60
2023-04-20T05:11:48.173Z,31.50
2023-04-20T05:15:21.964Z,31.10
2023-04-20T05:19:39.056Z,31.30
2023-04-20T05:22:58.527Z,31.30
2023-04-20T05:26:30.142Z,31.20
2023-04-20T05:33:33.316Z,31.20
2023-04-20T05:36:50.453Z,31.00
2023-04-20T05:40:27.914Z,31.30
2023-04-20T05:59:18.688Z,31.20
2023-04-20T06:06:55.950Z,32.30
2023-04-20T06:10:23.620Z,32.60
2023-04-20T06:13:43.829Z,32.50
2023-04-20T06:17:05.705Z,33.20
2023-04-20T06:24:42.318Z,34.70
2023-04-20T06:29:11.250Z,35.30
2023-04-20T06:33:13.377Z,35.90
2023-04-20T06:37:22.659Z,36.10
2023-04-20T06:41:34.486Z,36.30
2023-04-20T06:45:40.134Z,36.30
2023-04-20T06:48:43.400Z,36.40
2023-04-20T06:52:10.774Z,36.50
2023-04-20T06:56:21.593Z,36.30
2023-04-20T06:59:51.584Z,35.40
2023-04-20T07:03:19.836Z,35.30
2023-04-20T07:06:22.085Z,35.30
2023-04-20T07:09:24.866Z,35.30
2023-04-20T07:12:26.839Z,35.60
2023-04-20T07:15:29.155Z,35.50
2023-04-20T07:18:32.810Z,35.90
2023-04-20T07:21:36.624Z,35.80
2023-04-20T07:25:07.789Z,36.30
2023-04-20T07:28:13.732Z,36.60
2023-04-20T07:31:16.307Z,36.20
2023-04-20T07:34:19.214Z,35.90
2023-04-20T07:37:21.738Z,36.20
2023-04-20T07:40:25.176Z,36.70
2023-04-20T07:43:27.298Z,37.00
2023-04-20T07:46:32.648Z,37.10
2023-04-20T07:49:38.468Z,36.80
2023-04-20T07:52:41.753Z,36.80
2023-04-20T07:55:44.245Z,36.80
2023-04-20T07:58:47.326Z,36.60
2023-04-20T08:01:50.621Z,35.80
2023-04-20T08:04:54.178Z,35.60
2023-04-20T08:07:56.997Z,35.70
2023-04-20T08:10:59.844Z,35.90
2023-04-20T08:14:02.187Z,36.20
2023-04-20T08:17:05.063Z,36.60
2023-04-20T08:20:10.763Z,37.20
2023-04-20T08:23:14.721Z,37.10
2023-04-20T08:26:18.376Z,36.60
2023-04-20T08:29:20.974Z,36.10
2023-04-20T08:32:27.352Z,36.10
2023-04-20T08:35:30.810Z,35.80
2023-04-20T08:38:34.409Z,35.80
2023-04-20T08:41:38.195Z,35.40
2023-04-20T08:44:40.920Z,34.90
2023-04-20T08:47:45.442Z,34.50
2023-04-20T08:50:50.538Z,34.50
2023-04-20T08:53:55.130Z,34.00
2023-04-20T08:56:59.814Z,33.60
2023-04-20T09:00:06.140Z,33.40
2023-04-20T09:03:09.177Z,33.30
2023-04-20T09:06:17.574Z,33.20
2023-04-20T09:09:22.313Z,33.40
2023-04-20T09:12:26.105Z,33.40
2023-04-20T09:15:34.424Z,33.60
2023-04-20T09:18:43.015Z,34.00
2023-04-20T09:21:56.340Z,33.90
2023-04-20T09:25:00.215Z,33.50
2023-04-20T09:28:03.226Z,33.10
2023-04-20T09:31:06.262Z,32.70
2023-04-20T09:34:09.037Z,33.00
2023-04-20T09:37:16.947Z,33.20
2023-04-20T09:40:22.255Z,33.70
2023-04-20T09:43:30.337Z,34.10
2023-04-20T09:46:35.791Z,34.10
2023-04-20T09:49:39.792Z,34.40
2023-04-20T09:52:49.532Z,33.90
2023-04-20T09:56:00.210Z,33.60
2023-04-20T09:59:04.666Z,34.00
2023-04-20T10:02:19.383Z,34.30
2023-04-20T10:05:35.945Z,34.10
2023-04-20T10:08:51.657Z,34.40
2023-04-20T10:12:06.086Z,34.10
2023-04-20T10:15:10.364Z,33.70
2023-04-20T10:18:24.577Z,33.80
2023-04-20T10:21:38.437Z,33.30
2023-04-20T10:24:43.558Z,33.40
2023-04-20T10:27:55.009Z,33.30
2023-04-20T10:30:57.660Z,33.70
2023-04-20T10:34:00.926Z,33.70
2023-04-20T10:37:13.849Z,34.20
2023-04-20T10:40:17.934Z,32.90
2023-04-20T10:43:23.113Z,33.30
2023-04-20T10:46:26.432Z,33.70
2023-04-20T10:49:31.326Z,33.60
2023-04-20T10:52:42.601Z,33.70
2023-04-20T10:55:46.309Z,33.80
2023-04-20T10:58:49.464Z,34.10
2023-04-20T11:01:54.121Z,33.80
2023-04-20T11:05:01.100Z,33.50
2023-04-20T11:08:04.291Z,33.30
2023-04-20T11:11:21.389Z,33.00
2023-04-20T11:14:27.189Z,32.70
2023-04-20T11:17:34.925Z,32.40
2023-04-20T11:20:37.910Z,32.60
2023-04-20T11:23:42.602Z,32.40
2023-04-20T11:26:45.298Z,32.50
2023-04-20T11:29:58.361Z,32.70
2023-04-20T11:33:01.069Z,32.60
2023-04-20T11:36:04.131Z,32.30
2023-04-20T11:39:17.910Z,32.70
2023-04-20T11:42:20.698Z,33.00
2023-04-20T11:45:23.926Z,33.70
2023-04-20T11:48:27.683Z,33.90
2023-04-20T11:51:31.550Z,34.00
2023-04-20T11:54:35.224Z,33.60
2023-04-20T11:57:37.888Z,33.50
2023-04-20T12:00:40.961Z,33.10
2023-04-20T12:03:47.017Z,33.20
2023-04-20T12:06:50.564Z,32.70
2023-04-20T12:09:58.297Z,33.20
2023-04-20T12:13:01.439Z,33.70
2023-04-20T12:16:06.367Z,33.50
2023-04-20T12:19:09.419Z,34.00
2023-04-20T12:22:12.085Z,33.70
2023-04-20T12:25:14.624Z,33.30
2023-04-20T12:28:16.774Z,33.70
2023-04-20T12:31:20.540Z,33.60
2023-04-20T12:34:22.613Z,33.80
2023-04-20T12:37:24.910Z,33.80
2023-04-20T12:40:26.933Z,33.60
2023-04-20T12:43:29.192Z,34.00
2023-04-20T12:46:31.379Z,33.90
2023-04-20T12:49:34.163Z,33.50
2023-04-20T12:52:37.109Z,33.30
2023-04-20T12:59:45.334Z,33.70
2023-04-20T13:02:58.001Z,33.50
2023-04-20T13:06:18.722Z,33.90
2023-04-20T13:09:20.944Z,34.10
2023-04-20T13:12:34.563Z,34.50
2023-04-20T13:15:41.181Z,34.70
2023-04-20T13:18:49.158Z,33.70
2023-04-20T13:22:12.939Z,33.70
2023-04-20T13:25:33.519Z,33.20
2023-04-20T13:28:35.890Z,33.80
2023-04-20T13:31:38.093Z,33.50
2023-04-20T13:34:40.317Z,33.50
2023-04-20T13:38:58.558Z,33.20
2023-04-20T13:42:04.866Z,33.50
2023-04-20T13:45:43.829Z,33.70
2023-04-20T13:49:13.153Z,33.50
2023-04-20T13:52:21.171Z,32.70
2023-04-20T13:55:26.932Z,32.90
2023-04-20T13:58:29.805Z,33.00
2023-04-20T14:01:31.967Z,32.70
2023-04-20T14:04:34.311Z,32.20
2023-04-20T14:07:37.385Z,32.50
2023-04-20T14:10:43.242Z,32.80
2023-04-20T14:13:48.759Z,32.20
2023-04-20T14:16:55.379Z,32.20
2023-04-20T14:19:57.466Z,31.90
2023-04-20T14:26:43.772Z,32.30
2023-04-20T14:29:48.923Z,32.90
2023-04-20T14:37:05.156Z,33.60
2023-04-20T14:40:32.963Z,34.10
2023-04-20T14:43:59.279Z,34.10
2023-04-20T14:47:02.985Z,33.70
2023-04-20T14:51:01.936Z,32.80
2023-04-20T14:54:35.076Z,32.50
2023-04-20T15:02:26.194Z,33.20
2023-04-20T15:06:39.684Z,34.10
2023-04-20T15:11:08.417Z,34.60
2023-04-20T15:14:33.302Z,34.70
2023-04-20T15:17:54.016Z,34.80
2023-04-20T15:21:15.265Z,34.90
2023-04-20T15:24:22.319Z,35.10
2023-04-20T15:27:28.004Z,34.80
2023-04-20T15:30:33.395Z,34.80
2023-04-20T15:33:36.744Z,34.50
2023-04-20T15:36:43.022Z,34.30
2023-04-20T15:39:58.135Z,34.30
2023-04-20T15:43:24.096Z,34.10
2023-04-20T15:47:05.035Z,34.20
2023-04-20T15:50:40.921Z,34.30
2023-04-20T15:54:23.451Z,33.70
2023-04-20T15:57:44.503Z,32.60
2023-04-20T16:00:58.377Z,32.90
2023-04-20T16:04:23.238Z,33.10
2023-04-20T16:07:35.355Z,33.60
2023-04-20T16:10:47.202Z,33.40
2023-04-20T16:13:58.152Z,33.60
2023-04-20T16:17:04.792Z,32.20
2023-04-20T16:20:08.285Z,32.70
2023-04-20T16:23:13.706Z,33.10
2023-04-20T16:26:24.622Z,33.40
2023-04-20T16:34:38.542Z,33.60
2023-04-20T16:37:41.225Z,34.10
2023-04-20T16:40:55.545Z,34.30
2023-04-20T16:44:03.782Z,34.70
2023-04-20T16:47:23.589Z,35.00
2023-04-20T16:50:41.566Z,35.10
2023-04-20T16:53:45.439Z,35.20
2023-04-20T16:57:14.603Z,35.10
2023-04-20T17:00:32.285Z,35.10
2023-04-20T17:03:35.056Z,35.10
2023-04-20T17:07:06.566Z,35.20
2023-04-20T17:10:18.609Z,35.30
2023-04-20T17:13:21.328Z,35.30
2023-04-20T17:16:37.423Z,35.30
2023-04-20T17:19:42.655Z,35.20
2023-04-20T17:23:21.013Z,35.20
2023-04-20T17:26:32.809Z,35.10
2023-04-20T17:30:03.333Z,35.10
2023-04-20T17:33:20.581Z,35.00
2023-04-20T17:45:09.207Z,34.60
2023-04-20T17:48:25.954Z,34.20
2023-04-20T17:51:28.398Z,33.80
2023-04-20T17:54:33.975Z,33.90
2023-04-20T17:57:37.075Z,33.90
2023-04-20T18:00:40.312Z,33.70
2023-04-20T18:03:42.956Z,33.70
2023-04-20T18:06:46.322Z,33.30
2023-04-20T18:10:08.596Z,33.60
2023-04-20T18:13:17.138Z,33.80
2023-04-20T18:17:06.825Z,34.00
2023-04-20T18:24:07.429Z,34.10
2023-04-20T18:35:50.459Z,34.10
2023-04-20T18:43:26.835Z,33.50
2023-04-20T18:46:57.282Z,33.60
2023-04-20T18:50:13.544Z,33.30
2023-04-20T18:53:42.095Z,33.00
2023-04-20T18:56:50.728Z,32.90
2023-04-20T19:00:31.044Z,33.10
2023-04-20T19:04:14.631Z,33.30
2023-04-20T19:08:16.730Z,33.40
2023-04-20T19:11:41.753Z,33.40
2023-04-20T19:14:53.173Z,33.40
2023-04-20T19:18:17.127Z,33.40
2023-04-20T19:21:42.693Z,33.30
2023-04-20T19:25:12.992Z,33.20
2023-04-20T19:29:05.380Z,33.10
2023-04-20T19:32:22.911Z,33.00
2023-04-20T19:35:46.356Z,32.60
2023-04-20T19:39:25.417Z,32.60
2023-04-20T19:42:51.415Z,32.50
2023-04-20T19:45:56.414Z,32.40
2023-04-20T19:53:33.526Z,32.20
2023-04-20T19:57:02.993Z,32.30
2023-04-20T20:12:15.738Z,32.00
2023-04-20T20:15:20.872Z,32.00
2023-04-20T20:18:36.674Z,31.70
2023-04-20T20:22:05.100Z,31.90
2023-04-20T20:25:18.026Z,31.60
2023-04-20T20:30:01.139Z,31.70
2023-04-20T20:34:09.272Z,31.80
2023-04-20T20:38:37.592Z,31.80
2023-04-20T20:48:03.152Z,31.60
2023-04-20T20:51:19.570Z,31.30
2023-04-20T20:54:54.579Z,31.20
2023-04-20T20:58:39.667Z,31.30
2023-04-20T21:01:42.566Z,31.00
2023-04-20T21:04:54.927Z,30.90
2023-04-20T21:08:16.129Z,31.00
2023-04-20T21:15:10.184Z,30.60
2023-04-20T21:18:12.385Z,30.70
2023-04-20T21:21:35.416Z,30.50
2023-04-20T21:24:46.067Z,30.40
2023-04-20T21:27:48.976Z,29.80
2023-04-20T21:30:56.926Z,29.80
2023-04-20T21:34:13.757Z,29.70
2023-04-20T21:38:24.290Z,29.80
2023-04-20T21:42:00.192Z,29.80
2023-04-20T21:45:02.520Z,30.70
2023-04-20T21:48:29.280Z,30.50
2023-04-20T21:51:40.614Z,30.20
2023-04-20T21:54:51.932Z,30.60
2023-04-20T21:57:56.761Z,30.40
2023-04-20T22:01:01.401Z,30.70
2023-04-20T22:04:47.000Z,29.90
2023-04-20T22:12:05.305Z,30.40
2023-04-20T22:20:15.681Z,30.30
2023-04-20T22:23:41.023Z,29.50
2023-04-20T22:31:47.330Z,29.00
2023-04-20T22:35:03.875Z,29.30
2023-04-20T22:38:24.105Z,29.50
2023-04-20T22:41:31.158Z,29.60
2023-04-20T22:49:00.652Z,28.90
2023-04-20T22:56:54.998Z,29.20
2023-04-20T23:00:13.882Z,29.20
2023-04-20T23:03:24.973Z,29.30
2023-04-20T23:06:38.276Z,29.50
2023-04-20T23:09:52.726Z,28.90
2023-04-20T23:12:55.441Z,28.90
2023-04-20T23:16:09.859Z,28.50
2023-04-20T23:19:20.605Z,28.40
2023-04-20T23:22:43.796Z,28.40
2023-04-20T23:26:22.004Z,28.90
2023-04-20T23:29:27.712Z,29.00
2023-04-20T23:32:29.656Z,28.80
2023-04-20T23:36:04.907Z,28.80
2023-04-20T23:39:30.396Z,28.90
2023-04-20T23:42:50.033Z,29.20
2023-04-20T23:46:09.941Z,28.60
2023-04-20T23:49:35.997Z,29.20
2023-04-20T23:52:53.271Z,29.00
2023-04-20T23:56:22.456Z,29.10
